Autopride — CQQE — position and weather

sailwx.info

Track history (hours):
 
Tides and Currents Weather Stations Pressure Air Temp Water Temp Dewpoint Dewpoint Depression Visibility Wind Speed Wind Dir Waves Ship Positions

Autopride

Last reported at 2017-Oct-19 07:30 UTC. Time now 2017-Oct-19 07:36 UTC.
Position N 59°53' E 010°46'.

Length 125 m; draft 5.8 m.

Type: Cargo ship. MMSI: 255801560.

Date/timePositionNaut miles runAvg speedWind from/ knotsBaromVisibWave heightAir tempDewpointWater temp
2017-Oct-19 07:30N 59°53' E 010°46'0 0.0
2017-Oct-19 07:00N 59°53' E 010°46'0 0.0
2017-Oct-19 06:30N 59°53' E 010°46'0 0.0
2017-Oct-19 06:00N 59°53' E 010°46'0 0.0
2017-Oct-19 05:30N 59°53' E 010°46'0 0.0
2017-Oct-19 05:00N 59°53' E 010°46'0 0.0
2017-Oct-19 04:30N 59°53' E 010°46'0 0.0
2017-Oct-19 04:00N 59°53' E 010°46'2 4.3
2017-Oct-19 03:30N 59°52' E 010°42'715.0
2017-Oct-19 03:01N 59°46' E 010°34'714.3
2017-Oct-19 02:31N 59°39' E 010°37'917.7
2017-Oct-19 02:00N 59°30' E 010°35'918.0
2017-Oct-19 01:31N 59°21' E 010°35'918.1
2017-Oct-19 01:01N 59°12' E 010°38'917.4
2017-Oct-19 00:31N 59°04' E 010°36'816.6
2017-Oct-19 00:01N 58°56' E 010°28'815.2
2017-Oct-18 23:30N 58°50' E 010°20'815.2
2017-Oct-18 23:00N 58°44' E 010°12'815.3
2017-Oct-18 22:31N 58°38' E 010°03'815.5
2017-Oct-18 22:00N 58°31' E 009°55'18515.5
2017-Oct-18 10:04N 55°45' E 007°26'216.0
2017-Oct-18 09:58N 55°43' E 007°25'716.0
2017-Oct-18 09:31N 55°36' E 007°21'815.9
2017-Oct-18 09:00N 55°28' E 007°22'815.8
2017-Oct-18 08:30N 55°21' E 007°23'815.6
2017-Oct-18 08:00N 55°13' E 007°24'815.6
2017-Oct-18 07:30N 55°05' E 007°25'915.6
2017-Oct-18 06:57N 54°56' E 007°26'815.3
2017-Oct-18 06:27N 54°49' E 007°28'815.3
2017-Oct-18 05:55N 54°41' E 007°29'5014.6
2017-Oct-18 02:30N 53°52' E 007°52'918.6
2017-Oct-18 02:00N 53°49' E 008°07'1019.8
2017-Oct-18 01:30N 53°42' E 008°19'1019.1
2017-Oct-18 01:00N 53°36' E 008°31'3 6.3
2017-Oct-18 00:31N 53°33' E 008°34'0 0.9
2017-Oct-18 00:01N 53°34' E 008°34'0 0.1
2017-Oct-17 23:29N 53°34' E 008°34'0 0.0
2017-Oct-17 22:59N 53°34' E 008°34'0 0.0
2017-Oct-17 22:28N 53°34' E 008°34'0 0.0
2017-Oct-17 21:58N 53°34' E 008°34'0 0.0
2017-Oct-17 21:28N 53°34' E 008°34'0 0.0
2017-Oct-17 20:58N 53°34' E 008°34'0 0.0
2017-Oct-17 20:28N 53°34' E 008°34'0 1.0
2017-Oct-17 20:00N 53°34' E 008°33'1 1.4
2017-Oct-17 19:28N 53°35' E 008°33'0 0.0
2017-Oct-17 18:58N 53°35' E 008°33'0 0.0
2017-Oct-17 18:28N 53°35' E 008°33'0 0.0
2017-Oct-17 17:58N 53°35' E 008°33'0 0.0
2017-Oct-17 17:28N 53°35' E 008°33'0 0.0
2017-Oct-17 16:58N 53°35' E 008°33'0 0.0
2017-Oct-17 16:28N 53°35' E 008°33'0 0.0
2017-Oct-17 16:00N 53°35' E 008°33'1 2.0
2017-Oct-17 15:30N 53°34' E 008°33'0 0.6
2017-Oct-17 15:00N 53°33' E 008°34'0 0.0
2017-Oct-17 14:30N 53°33' E 008°34'3 6.0
2017-Oct-17 14:00N 53°36' E 008°31'714.1
2017-Oct-17 13:31N 53°41' E 008°22'816.1
2017-Oct-17 13:00N 53°46' E 008°11'815.9
2017-Oct-17 12:31N 53°51' E 008°01'50 8.8
2017-Oct-17 06:49N 54°36' E 007°25'516.7
2017-Oct-17 06:30N 54°42' E 007°25'816.7
2017-Oct-17 05:59N 54°50' E 007°24'816.9
2017-Oct-17 05:31N 54°58' E 007°24'816.9
2017-Oct-17 05:01N 55°07' E 007°24'917.4
2017-Oct-17 04:30N 55°15' E 007°23'917.6
2017-Oct-17 04:00N 55°24' E 007°22'917.6
2017-Oct-17 03:31N 55°33' E 007°20'916.7
2017-Oct-17 03:00N 55°41' E 007°23'817.1
2017-Oct-17 02:30N 55°49' E 007°27'917.4
2017-Oct-17 02:00N 55°58' E 007°32'12218.1
2017-Oct-16 19:15N 57°49' E 009°06'519.0
2017-Oct-16 19:00N 57°52' E 009°11'1019.3
2017-Oct-16 18:30N 58°00' E 009°22'1019.4
2017-Oct-16 18:00N 58°08' E 009°32'1019.5
2017-Oct-16 17:29N 58°16' E 009°43'919.5
2017-Oct-16 17:01N 58°24' E 009°54'1019.3
2017-Oct-16 16:31N 58°32' E 010°04'1019.4
2017-Oct-16 16:01N 58°40' E 010°14'1019.4
2017-Oct-16 15:31N 58°48' E 010°24'1019.2
2017-Oct-16 15:01N 58°57' E 010°31'1019.1
2017-Oct-16 14:31N 59°06' E 010°37'1919.2
2017-Oct-16 13:31N 59°25' E 010°33'1019.8
2017-Oct-16 13:01N 59°35' E 010°38'816.1
2017-Oct-16 12:30N 59°43' E 010°35'918.6
2017-Oct-16 12:00N 59°52' E 010°38'4 8.2
2017-Oct-16 11:30N 59°53' E 010°46'0 0.0
2017-Oct-16 11:00N 59°53' E 010°46'0 0.0
2017-Oct-16 10:30N 59°53' E 010°46'0 0.0
2017-Oct-16 10:00N 59°53' E 010°46'0 0.0
2017-Oct-16 09:30N 59°53' E 010°46'0 0.0
2017-Oct-16 09:00N 59°53' E 010°46'0 0.0
2017-Oct-16 08:30N 59°53' E 010°46'0 0.0
2017-Oct-16 08:00N 59°53' E 010°46'0 0.0
2017-Oct-16 07:30N 59°53' E 010°46'0 0.0
2017-Oct-16 07:00N 59°53' E 010°46'0 0.0
2017-Oct-16 06:30N 59°53' E 010°46'0 0.0
2017-Oct-16 06:00N 59°53' E 010°46'0 0.0
2017-Oct-16 05:30N 59°53' E 010°46'0 0.0
2017-Oct-16 05:00N 59°53' E 010°46'0 0.0
2017-Oct-16 04:30N 59°53' E 010°46'1 2.2
2017-Oct-16 04:00N 59°53' E 010°44'715.0
2017-Oct-16 03:31N 59°47' E 010°34'714.7
2017-Oct-16 03:00N 59°40' E 010°37'918.1
2017-Oct-16 02:31N 59°31' E 010°35'1019.1
2017-Oct-16 02:01N 59°21' E 010°35'1019.5
2017-Oct-16 01:30N 59°12' E 010°39'816.9
2017-Oct-16 01:00N 59°03' E 010°35'613.0
2017-Oct-16 00:30N 58°58' E 010°29'612.2
2017-Oct-16 00:00N 58°52' E 010°23'612.0
2017-Oct-15 23:30N 58°48' E 010°16'612.0
2017-Oct-15 23:00N 58°42' E 010°10'612.2
2017-Oct-15 22:30N 58°37' E 010°04'3412.5
2017-Oct-15 19:47N 58°09' E 009°28'412.0
2017-Oct-15 19:29N 58°06' E 009°24'711.9
2017-Oct-15 18:56N 58°00' E 009°18'612.3
2017-Oct-15 18:26N 57°55' E 009°11'512.3
2017-Oct-15 18:00N 57°51' E 009°06'912.4
2017-Oct-15 17:17N 57°43' E 008°57'412.3
2017-Oct-15 17:00N 57°40' E 008°54'612.2
2017-Oct-15 16:30N 57°35' E 008°47'612.3
2017-Oct-15 16:01N 57°30' E 008°41'712.5
2017-Oct-15 15:27N 57°24' E 008°34'10812.5
2017-Oct-15 06:48N 55°44' E 007°25'412.3
2017-Oct-15 06:29N 55°40' E 007°24'612.3
2017-Oct-15 06:00N 55°34' E 007°22'612.5
2017-Oct-15 05:29N 55°28' E 007°23'712.9
2017-Oct-15 04:58N 55°21' E 007°24'612.9
2017-Oct-15 04:31N 55°15' E 007°25'612.4
2017-Oct-15 04:00N 55°09' E 007°25'612.2
2017-Oct-15 03:30N 55°03' E 007°26'612.3
2017-Oct-15 03:00N 54°57' E 007°27'612.2
2017-Oct-15 02:30N 54°50' E 007°27'1112.2
2017-Oct-15 01:38N 54°40' E 007°29'5211.8
2017-Oct-14 21:15N 53°51' E 007°60'519.3
2017-Oct-14 20:59N 53°49' E 008°07'919.7
2017-Oct-14 20:30N 53°42' E 008°19'918.6
2017-Oct-14 20:00N 53°36' E 008°30'3 6.5
2017-Oct-14 19:30N 53°33' E 008°34'0 0.0
2017-Oct-14 19:00N 53°33' E 008°34'1 1.1
2017-Oct-14 18:30N 53°34' E 008°34'0 0.0
2017-Oct-14 17:59N 53°34' E 008°34'0 0.0
2017-Oct-14 17:29N 53°34' E 008°34'0 0.0
2017-Oct-14 16:59N 53°34' E 008°34'0 0.0
2017-Oct-14 16:29N 53°34' E 008°34'0 0.0
2017-Oct-14 15:59N 53°34' E 008°34'0 0.0
2017-Oct-14 15:28N 53°34' E 008°34'0 0.0
2017-Oct-14 14:58N 53°34' E 008°34'0 0.0
2017-Oct-14 14:29N 53°34' E 008°34'0 0.0
2017-Oct-14 13:58N 53°34' E 008°34'0 0.0
2017-Oct-14 13:28N 53°34' E 008°34'0 0.0
2017-Oct-14 12:58N 53°34' E 008°34'0 0.0
2017-Oct-14 12:28N 53°34' E 008°34'0 1.0
2017-Oct-14 12:00N 53°34' E 008°33'1 1.8
2017-Oct-14 11:30N 53°35' E 008°33'0 0.0
2017-Oct-14 11:00N 53°35' E 008°33'0 0.0
2017-Oct-14 10:30N 53°35' E 008°33'0 0.0
2017-Oct-14 10:00N 53°35' E 008°33'0 0.0
2017-Oct-14 09:30N 53°35' E 008°33'0 0.0
2017-Oct-14 09:00N 53°35' E 008°33'0 0.0
2017-Oct-14 08:30N 53°35' E 008°33'0 0.0
2017-Oct-14 08:00N 53°35' E 008°33'0 0.8
2017-Oct-14 07:31N 53°34' E 008°33'0 0.8
2017-Oct-14 07:00N 53°34' E 008°33'510.5
2017-Oct-14 06:30N 53°38' E 008°27'714.5
2017-Oct-14 06:00N 53°43' E 008°18'816.2
2017-Oct-14 05:30N 53°48' E 008°08'6215.2
2017-Oct-14 01:27N 54°45' E 007°25'818.4
2017-Oct-14 01:00N 54°53' E 007°25'918.2
2017-Oct-14 00:29N 55°02' E 007°25'918.1
2017-Oct-14 00:00N 55°11' E 007°24'918.0
2017-Oct-13 23:30N 55°20' E 007°23'918.0
2017-Oct-13 23:00N 55°29' E 007°21'917.3
2017-Oct-13 22:30N 55°38' E 007°20'917.2
2017-Oct-13 21:59N 55°46' E 007°26'1017.2
2017-Oct-13 21:25N 55°55' E 007°31'13616.6
2017-Oct-13 13:11N 57°44' E 010°01'518.0
2017-Oct-13 12:55N 57°46' E 010°09'818.6
2017-Oct-13 12:30N 57°50' E 010°22'918.0
2017-Oct-13 12:00N 57°51' E 010°39'917.5
2017-Oct-13 11:30N 57°51' E 010°56'917.6
2017-Oct-13 11:00N 57°51' E 011°12'917.5
2017-Oct-13 10:30N 57°52' E 011°28'714.1
2017-Oct-13 10:00N 57°56' E 011°40'510.1
2017-Oct-13 09:30N 58°01' E 011°42'0 0.0
2017-Oct-13 08:54N 58°01' E 011°42'0 0.0
2017-Oct-13 08:30N 58°01' E 011°42'0 0.0
2017-Oct-13 08:00N 58°01' E 011°42'0 0.0
2017-Oct-13 07:24N 58°01' E 011°42'0 0.0
2017-Oct-13 07:00N 58°01' E 011°42'0 0.0
2017-Oct-13 06:30N 58°01' E 011°42'0 0.0
2017-Oct-13 05:54N 58°01' E 011°42'0 0.0
2017-Oct-13 05:30N 58°01' E 011°42'0 0.0
2017-Oct-13 05:00N 58°01' E 011°42'0 0.3
2017-Oct-13 04:30N 58°01' E 011°42'5 9.9
2017-Oct-13 04:01N 57°56' E 011°40'714.8
2017-Oct-13 03:31N 57°52' E 011°28'5 9.4
2017-Oct-13 02:59N 57°55' E 011°20'510.3
2017-Oct-13 02:30N 57°60' E 011°16'611.1
2017-Oct-13 01:59N 58°05' E 011°12'510.9
2017-Oct-13 01:30N 58°10' E 011°08'611.1
2017-Oct-13 01:00N 58°15' E 011°03'510.8
2017-Oct-13 00:30N 58°19' E 010°58'611.0
2017-Oct-13 00:00N 58°24' E 010°54'611.3
2017-Oct-12 23:30N 58°29' E 010°49'611.0
2017-Oct-12 23:00N 58°35' E 010°46'510.5
2017-Oct-12 22:30N 58°40' E 010°45'611.0
2017-Oct-12 22:00N 58°45' E 010°43'611.3
2017-Oct-12 21:30N 58°51' E 010°43'611.2
2017-Oct-12 21:00N 58°57' E 010°42'611.1
2017-Oct-12 20:30N 59°02' E 010°41'510.9
2017-Oct-12 20:00N 59°08' E 010°39'816.4
2017-Oct-12 19:30N 59°16' E 010°36'1019.7
2017-Oct-12 19:00N 59°25' E 010°33'917.7
2017-Oct-12 18:31N 59°33' E 010°24'5 8.9
2017-Oct-12 17:59N 59°38' E 010°25'612.2
2017-Oct-12 17:29N 59°43' E 010°19'3 2.3
2017-Oct-12 16:21N 59°44' E 010°14'0 0.0
2017-Oct-12 16:00N 59°44' E 010°14'0 0.0
2017-Oct-12 15:30N 59°44' E 010°14'0 0.0
2017-Oct-12 15:00N 59°44' E 010°14'0 0.0
2017-Oct-12 14:30N 59°44' E 010°14'0 0.0
2017-Oct-12 14:00N 59°44' E 010°14'0 0.3
2017-Oct-12 13:30N 59°44' E 010°14'5 9.2
2017-Oct-12 13:00N 59°41' E 010°22'510.5
2017-Oct-12 12:30N 59°36' E 010°25'510.1
2017-Oct-12 12:00N 59°31' E 010°25'918.8
2017-Oct-12 11:30N 59°23' E 010°34'1019.3
2017-Oct-12 11:00N 59°14' E 010°38'918.5
2017-Oct-12 10:30N 59°05' E 010°36'918.1
2017-Oct-12 10:00N 58°57' E 010°28'918.2
2017-Oct-12 09:30N 58°49' E 010°18'917.7
2017-Oct-12 09:00N 58°42' E 010°09'917.0
2017-Oct-12 08:30N 58°35' E 009°60'20118.3
2017-Oct-11 21:31N 55°33' E 007°22'118.3
2017-Oct-11 21:27N 55°32' E 007°22'818.0
2017-Oct-11 21:00N 55°24' E 007°23'918.0
2017-Oct-11 20:30N 55°15' E 007°25'918.0
2017-Oct-11 20:00N 55°06' E 007°25'918.1
2017-Oct-11 19:30N 54°57' E 007°26'918.3
2017-Oct-11 19:00N 54°48' E 007°27'918.3
2017-Oct-11 18:30N 54°39' E 007°28'76 4.1
2017-Oct-11 00:00N 53°34' E 008°34'0 0.0
2017-Oct-10 23:30N 53°34' E 008°34'0 0.0
2017-Oct-10 23:00N 53°34' E 008°34'0 0.0
2017-Oct-10 22:30N 53°34' E 008°34'0 0.0
2017-Oct-10 21:59N 53°34' E 008°34'0 0.0
2017-Oct-10 21:29N 53°34' E 008°34'0 1.0
2017-Oct-10 21:00N 53°34' E 008°34'0 0.1
2017-Oct-10 20:31N 53°33' E 008°34'1 2.1
2017-Oct-10 20:00N 53°34' E 008°32'3 5.6
2017-Oct-10 19:30N 53°36' E 008°30'815.6
2017-Oct-10 19:00N 53°42' E 008°20'815.3
2017-Oct-10 18:30N 53°47' E 008°10'815.4
2017-Oct-10 18:00N 53°51' E 007°59'815.3
2017-Oct-10 17:30N 53°53' E 007°47'4611.8
2017-Oct-10 13:34N 54°37' E 007°25'112.3
2017-Oct-10 13:30N 54°38' E 007°25'612.5
2017-Oct-10 13:00N 54°44' E 007°25'612.7
2017-Oct-10 12:30N 54°51' E 007°25'612.8
2017-Oct-10 12:00N 54°57' E 007°25'612.8
2017-Oct-10 11:30N 55°03' E 007°24'713.0
2017-Oct-10 11:00N 55°10' E 007°24'713.3
2017-Oct-10 10:30N 55°17' E 007°24'713.3
2017-Oct-10 10:00N 55°23' E 007°23'713.7
2017-Oct-10 09:30N 55°30' E 007°23'713.2
2017-Oct-10 09:00N 55°37' E 007°22'19812.8
2017-Oct-09 17:35N 58°33' E 010°06'113.1
2017-Oct-09 17:30N 58°34' E 010°07'713.3
2017-Oct-09 17:00N 58°40' E 010°13'713.0
2017-Oct-09 16:30N 58°46' E 010°19'713.1
2017-Oct-09 16:00N 58°51' E 010°26'713.2
2017-Oct-09 15:30N 58°57' E 010°31'613.0
2017-Oct-09 15:00N 59°03' E 010°36'917.3
2017-Oct-09 14:30N 59°12' E 010°38'1020.7
2017-Oct-09 14:00N 59°22' E 010°35'1020.1
2017-Oct-09 13:30N 59°32' E 010°36'917.7
2017-Oct-09 13:01N 59°41' E 010°37'917.5
2017-Oct-09 12:31N 59°50' E 010°35'612.7
2017-Oct-09 12:00N 59°53' E 010°46'0 0.0
2017-Oct-09 11:29N 59°53' E 010°46'0 0.0
2017-Oct-09 10:59N 59°53' E 010°46'0 0.0
2017-Oct-09 10:29N 59°53' E 010°46'0 0.0
2017-Oct-09 09:59N 59°53' E 010°46'0 0.0
2017-Oct-09 09:29N 59°53' E 010°46'0 0.0
2017-Oct-09 08:59N 59°53' E 010°46'0 0.0
2017-Oct-09 08:29N 59°53' E 010°46'0 0.0
2017-Oct-09 07:59N 59°53' E 010°46'  
Track history (hours):
 
Tides and Currents Weather Stations Pressure Air Temp Water Temp Dewpoint Dewpoint Depression Visibility Wind Speed Wind Dir Waves Ship Positions

Autopride

Last reported at 2017-Oct-19 07:30 UTC. Time now 2017-Oct-19 07:36 UTC.
Position N 59°53' E 010°46'.

Length 125 m; draft 5.8 m.

Type: Cargo ship. MMSI: 255801560.

Date/timePositionNaut miles runAvg speedWind from/ knotsBaromVisibWave heightAir tempDewpointWater temp
2017-Oct-19 07:30N 59°53' E 010°46'0 0.0
2017-Oct-19 07:00N 59°53' E 010°46'0 0.0
2017-Oct-19 06:30N 59°53' E 010°46'0 0.0
2017-Oct-19 06:00N 59°53' E 010°46'0 0.0
2017-Oct-19 05:30N 59°53' E 010°46'0 0.0
2017-Oct-19 05:00N 59°53' E 010°46'0 0.0
2017-Oct-19 04:30N 59°53' E 010°46'0 0.0
2017-Oct-19 04:00N 59°53' E 010°46'2 4.3
2017-Oct-19 03:30N 59°52' E 010°42'715.0
2017-Oct-19 03:01N 59°46' E 010°34'714.3
2017-Oct-19 02:31N 59°39' E 010°37'917.7
2017-Oct-19 02:00N 59°30' E 010°35'918.0
2017-Oct-19 01:31N 59°21' E 010°35'918.1
2017-Oct-19 01:01N 59°12' E 010°38'917.4
2017-Oct-19 00:31N 59°04' E 010°36'816.6
2017-Oct-19 00:01N 58°56' E 010°28'815.2
2017-Oct-18 23:30N 58°50' E 010°20'815.2
2017-Oct-18 23:00N 58°44' E 010°12'815.3
2017-Oct-18 22:31N 58°38' E 010°03'815.5
2017-Oct-18 22:00N 58°31' E 009°55'18515.5
2017-Oct-18 10:04N 55°45' E 007°26'216.0
2017-Oct-18 09:58N 55°43' E 007°25'716.0
2017-Oct-18 09:31N 55°36' E 007°21'815.9
2017-Oct-18 09:00N 55°28' E 007°22'815.8
2017-Oct-18 08:30N 55°21' E 007°23'815.6
2017-Oct-18 08:00N 55°13' E 007°24'815.6
2017-Oct-18 07:30N 55°05' E 007°25'915.6
2017-Oct-18 06:57N 54°56' E 007°26'815.3
2017-Oct-18 06:27N 54°49' E 007°28'815.3
2017-Oct-18 05:55N 54°41' E 007°29'5014.6
2017-Oct-18 02:30N 53°52' E 007°52'918.6
2017-Oct-18 02:00N 53°49' E 008°07'1019.8
2017-Oct-18 01:30N 53°42' E 008°19'1019.1
2017-Oct-18 01:00N 53°36' E 008°31'3 6.3
2017-Oct-18 00:31N 53°33' E 008°34'0 0.9
2017-Oct-18 00:01N 53°34' E 008°34'0 0.1
2017-Oct-17 23:29N 53°34' E 008°34'0 0.0
2017-Oct-17 22:59N 53°34' E 008°34'0 0.0
2017-Oct-17 22:28N 53°34' E 008°34'0 0.0
2017-Oct-17 21:58N 53°34' E 008°34'0 0.0
2017-Oct-17 21:28N 53°34' E 008°34'0 0.0
2017-Oct-17 20:58N 53°34' E 008°34'0 0.0
2017-Oct-17 20:28N 53°34' E 008°34'0 1.0
2017-Oct-17 20:00N 53°34' E 008°33'1 1.4
2017-Oct-17 19:28N 53°35' E 008°33'0 0.0
2017-Oct-17 18:58N 53°35' E 008°33'0 0.0
2017-Oct-17 18:28N 53°35' E 008°33'0 0.0
2017-Oct-17 17:58N 53°35' E 008°33'0 0.0
2017-Oct-17 17:28N 53°35' E 008°33'0 0.0
2017-Oct-17 16:58N 53°35' E 008°33'0 0.0
2017-Oct-17 16:28N 53°35' E 008°33'0 0.0
2017-Oct-17 16:00N 53°35' E 008°33'1 2.0
2017-Oct-17 15:30N 53°34' E 008°33'0 0.6
2017-Oct-17 15:00N 53°33' E 008°34'0 0.0
2017-Oct-17 14:30N 53°33' E 008°34'3 6.0
2017-Oct-17 14:00N 53°36' E 008°31'714.1
2017-Oct-17 13:31N 53°41' E 008°22'816.1
2017-Oct-17 13:00N 53°46' E 008°11'815.9
2017-Oct-17 12:31N 53°51' E 008°01'50 8.8
2017-Oct-17 06:49N 54°36' E 007°25'516.7
2017-Oct-17 06:30N 54°42' E 007°25'816.7
2017-Oct-17 05:59N 54°50' E 007°24'816.9
2017-Oct-17 05:31N 54°58' E 007°24'816.9
2017-Oct-17 05:01N 55°07' E 007°24'917.4
2017-Oct-17 04:30N 55°15' E 007°23'917.6
2017-Oct-17 04:00N 55°24' E 007°22'917.6
2017-Oct-17 03:31N 55°33' E 007°20'916.7
2017-Oct-17 03:00N 55°41' E 007°23'817.1
2017-Oct-17 02:30N 55°49' E 007°27'917.4
2017-Oct-17 02:00N 55°58' E 007°32'12218.1
2017-Oct-16 19:15N 57°49' E 009°06'519.0
2017-Oct-16 19:00N 57°52' E 009°11'1019.3
2017-Oct-16 18:30N 58°00' E 009°22'1019.4
2017-Oct-16 18:00N 58°08' E 009°32'1019.5
2017-Oct-16 17:29N 58°16' E 009°43'919.5
2017-Oct-16 17:01N 58°24' E 009°54'1019.3
2017-Oct-16 16:31N 58°32' E 010°04'1019.4
2017-Oct-16 16:01N 58°40' E 010°14'1019.4
2017-Oct-16 15:31N 58°48' E 010°24'1019.2
2017-Oct-16 15:01N 58°57' E 010°31'1019.1
2017-Oct-16 14:31N 59°06' E 010°37'1919.2
2017-Oct-16 13:31N 59°25' E 010°33'1019.8
2017-Oct-16 13:01N 59°35' E 010°38'816.1
2017-Oct-16 12:30N 59°43' E 010°35'918.6
2017-Oct-16 12:00N 59°52' E 010°38'4 8.2
2017-Oct-16 11:30N 59°53' E 010°46'0 0.0
2017-Oct-16 11:00N 59°53' E 010°46'0 0.0
2017-Oct-16 10:30N 59°53' E 010°46'0 0.0
2017-Oct-16 10:00N 59°53' E 010°46'0 0.0
2017-Oct-16 09:30N 59°53' E 010°46'0 0.0
2017-Oct-16 09:00N 59°53' E 010°46'0 0.0
2017-Oct-16 08:30N 59°53' E 010°46'0 0.0
2017-Oct-16 08:00N 59°53' E 010°46'0 0.0
2017-Oct-16 07:30N 59°53' E 010°46'0 0.0
2017-Oct-16 07:00N 59°53' E 010°46'0 0.0
2017-Oct-16 06:30N 59°53' E 010°46'0 0.0
2017-Oct-16 06:00N 59°53' E 010°46'0 0.0
2017-Oct-16 05:30N 59°53' E 010°46'0 0.0
2017-Oct-16 05:00N 59°53' E 010°46'0 0.0
2017-Oct-16 04:30N 59°53' E 010°46'1 2.2
2017-Oct-16 04:00N 59°53' E 010°44'715.0
2017-Oct-16 03:31N 59°47' E 010°34'714.7
2017-Oct-16 03:00N 59°40' E 010°37'918.1
2017-Oct-16 02:31N 59°31' E 010°35'1019.1
2017-Oct-16 02:01N 59°21' E 010°35'1019.5
2017-Oct-16 01:30N 59°12' E 010°39'816.9
2017-Oct-16 01:00N 59°03' E 010°35'613.0
2017-Oct-16 00:30N 58°58' E 010°29'612.2
2017-Oct-16 00:00N 58°52' E 010°23'612.0
2017-Oct-15 23:30N 58°48' E 010°16'612.0
2017-Oct-15 23:00N 58°42' E 010°10'612.2
2017-Oct-15 22:30N 58°37' E 010°04'3412.5
2017-Oct-15 19:47N 58°09' E 009°28'412.0
2017-Oct-15 19:29N 58°06' E 009°24'711.9
2017-Oct-15 18:56N 58°00' E 009°18'612.3
2017-Oct-15 18:26N 57°55' E 009°11'512.3
2017-Oct-15 18:00N 57°51' E 009°06'912.4
2017-Oct-15 17:17N 57°43' E 008°57'412.3
2017-Oct-15 17:00N 57°40' E 008°54'612.2
2017-Oct-15 16:30N 57°35' E 008°47'612.3
2017-Oct-15 16:01N 57°30' E 008°41'712.5
2017-Oct-15 15:27N 57°24' E 008°34'10812.5
2017-Oct-15 06:48N 55°44' E 007°25'412.3
2017-Oct-15 06:29N 55°40' E 007°24'612.3
2017-Oct-15 06:00N 55°34' E 007°22'612.5
2017-Oct-15 05:29N 55°28' E 007°23'712.9
2017-Oct-15 04:58N 55°21' E 007°24'612.9
2017-Oct-15 04:31N 55°15' E 007°25'612.4
2017-Oct-15 04:00N 55°09' E 007°25'612.2
2017-Oct-15 03:30N 55°03' E 007°26'612.3
2017-Oct-15 03:00N 54°57' E 007°27'612.2
2017-Oct-15 02:30N 54°50' E 007°27'1112.2
2017-Oct-15 01:38N 54°40' E 007°29'5211.8
2017-Oct-14 21:15N 53°51' E 007°60'519.3
2017-Oct-14 20:59N 53°49' E 008°07'919.7
2017-Oct-14 20:30N 53°42' E 008°19'918.6
2017-Oct-14 20:00N 53°36' E 008°30'3 6.5
2017-Oct-14 19:30N 53°33' E 008°34'0 0.0
2017-Oct-14 19:00N 53°33' E 008°34'1 1.1
2017-Oct-14 18:30N 53°34' E 008°34'0 0.0
2017-Oct-14 17:59N 53°34' E 008°34'0 0.0
2017-Oct-14 17:29N 53°34' E 008°34'0 0.0
2017-Oct-14 16:59N 53°34' E 008°34'0 0.0
2017-Oct-14 16:29N 53°34' E 008°34'0 0.0
2017-Oct-14 15:59N 53°34' E 008°34'0 0.0
2017-Oct-14 15:28N 53°34' E 008°34'0 0.0
2017-Oct-14 14:58N 53°34' E 008°34'0 0.0
2017-Oct-14 14:29N 53°34' E 008°34'0 0.0
2017-Oct-14 13:58N 53°34' E 008°34'0 0.0
2017-Oct-14 13:28N 53°34' E 008°34'0 0.0
2017-Oct-14 12:58N 53°34' E 008°34'0 0.0
2017-Oct-14 12:28N 53°34' E 008°34'0 1.0
2017-Oct-14 12:00N 53°34' E 008°33'1 1.8
2017-Oct-14 11:30N 53°35' E 008°33'0 0.0
2017-Oct-14 11:00N 53°35' E 008°33'0 0.0
2017-Oct-14 10:30N 53°35' E 008°33'0 0.0
2017-Oct-14 10:00N 53°35' E 008°33'0 0.0
2017-Oct-14 09:30N 53°35' E 008°33'0 0.0
2017-Oct-14 09:00N 53°35' E 008°33'0 0.0
2017-Oct-14 08:30N 53°35' E 008°33'0 0.0
2017-Oct-14 08:00N 53°35' E 008°33'0 0.8
2017-Oct-14 07:31N 53°34' E 008°33'0 0.8
2017-Oct-14 07:00N 53°34' E 008°33'510.5
2017-Oct-14 06:30N 53°38' E 008°27'714.5
2017-Oct-14 06:00N 53°43' E 008°18'816.2
2017-Oct-14 05:30N 53°48' E 008°08'6215.2
2017-Oct-14 01:27N 54°45' E 007°25'818.4
2017-Oct-14 01:00N 54°53' E 007°25'918.2
2017-Oct-14 00:29N 55°02' E 007°25'918.1
2017-Oct-14 00:00N 55°11' E 007°24'918.0
2017-Oct-13 23:30N 55°20' E 007°23'918.0
2017-Oct-13 23:00N 55°29' E 007°21'917.3
2017-Oct-13 22:30N 55°38' E 007°20'917.2
2017-Oct-13 21:59N 55°46' E 007°26'1017.2
2017-Oct-13 21:25N 55°55' E 007°31'13616.6
2017-Oct-13 13:11N 57°44' E 010°01'518.0
2017-Oct-13 12:55N 57°46' E 010°09'818.6
2017-Oct-13 12:30N 57°50' E 010°22'918.0
2017-Oct-13 12:00N 57°51' E 010°39'917.5
2017-Oct-13 11:30N 57°51' E 010°56'917.6
2017-Oct-13 11:00N 57°51' E 011°12'917.5
2017-Oct-13 10:30N 57°52' E 011°28'714.1
2017-Oct-13 10:00N 57°56' E 011°40'510.1
2017-Oct-13 09:30N 58°01' E 011°42'0 0.0
2017-Oct-13 08:54N 58°01' E 011°42'0 0.0
2017-Oct-13 08:30N 58°01' E 011°42'0 0.0
2017-Oct-13 08:00N 58°01' E 011°42'0 0.0
2017-Oct-13 07:24N 58°01' E 011°42'0 0.0
2017-Oct-13 07:00N 58°01' E 011°42'0 0.0
2017-Oct-13 06:30N 58°01' E 011°42'0 0.0
2017-Oct-13 05:54N 58°01' E 011°42'0 0.0
2017-Oct-13 05:30N 58°01' E 011°42'0 0.0
2017-Oct-13 05:00N 58°01' E 011°42'0 0.3
2017-Oct-13 04:30N 58°01' E 011°42'5 9.9
2017-Oct-13 04:01N 57°56' E 011°40'714.8
2017-Oct-13 03:31N 57°52' E 011°28'5 9.4
2017-Oct-13 02:59N 57°55' E 011°20'510.3
2017-Oct-13 02:30N 57°60' E 011°16'611.1
2017-Oct-13 01:59N 58°05' E 011°12'510.9
2017-Oct-13 01:30N 58°10' E 011°08'611.1
2017-Oct-13 01:00N 58°15' E 011°03'510.8
2017-Oct-13 00:30N 58°19' E 010°58'611.0
2017-Oct-13 00:00N 58°24' E 010°54'611.3
2017-Oct-12 23:30N 58°29' E 010°49'611.0
2017-Oct-12 23:00N 58°35' E 010°46'510.5
2017-Oct-12 22:30N 58°40' E 010°45'611.0
2017-Oct-12 22:00N 58°45' E 010°43'611.3
2017-Oct-12 21:30N 58°51' E 010°43'611.2
2017-Oct-12 21:00N 58°57' E 010°42'611.1
2017-Oct-12 20:30N 59°02' E 010°41'510.9
2017-Oct-12 20:00N 59°08' E 010°39'816.4
2017-Oct-12 19:30N 59°16' E 010°36'1019.7
2017-Oct-12 19:00N 59°25' E 010°33'917.7
2017-Oct-12 18:31N 59°33' E 010°24'5 8.9
2017-Oct-12 17:59N 59°38' E 010°25'612.2
2017-Oct-12 17:29N 59°43' E 010°19'3 2.3
2017-Oct-12 16:21N 59°44' E 010°14'0 0.0
2017-Oct-12 16:00N 59°44' E 010°14'0 0.0
2017-Oct-12 15:30N 59°44' E 010°14'0 0.0
2017-Oct-12 15:00N 59°44' E 010°14'0 0.0
2017-Oct-12 14:30N 59°44' E 010°14'0 0.0
2017-Oct-12 14:00N 59°44' E 010°14'0 0.3
2017-Oct-12 13:30N 59°44' E 010°14'5 9.2
2017-Oct-12 13:00N 59°41' E 010°22'510.5
2017-Oct-12 12:30N 59°36' E 010°25'510.1
2017-Oct-12 12:00N 59°31' E 010°25'918.8
2017-Oct-12 11:30N 59°23' E 010°34'1019.3
2017-Oct-12 11:00N 59°14' E 010°38'918.5
2017-Oct-12 10:30N 59°05' E 010°36'918.1
2017-Oct-12 10:00N 58°57' E 010°28'918.2
2017-Oct-12 09:30N 58°49' E 010°18'917.7
2017-Oct-12 09:00N 58°42' E 010°09'917.0
2017-Oct-12 08:30N 58°35' E 009°60'20118.3
2017-Oct-11 21:31N 55°33' E 007°22'118.3
2017-Oct-11 21:27N 55°32' E 007°22'818.0
2017-Oct-11 21:00N 55°24' E 007°23'918.0
2017-Oct-11 20:30N 55°15' E 007°25'918.0
2017-Oct-11 20:00N 55°06' E 007°25'918.1
2017-Oct-11 19:30N 54°57' E 007°26'918.3
2017-Oct-11 19:00N 54°48' E 007°27'918.3
2017-Oct-11 18:30N 54°39' E 007°28'76 4.1
2017-Oct-11 00:00N 53°34' E 008°34'0 0.0
2017-Oct-10 23:30N 53°34' E 008°34'0 0.0
2017-Oct-10 23:00N 53°34' E 008°34'0 0.0
2017-Oct-10 22:30N 53°34' E 008°34'0 0.0
2017-Oct-10 21:59N 53°34' E 008°34'0 0.0
2017-Oct-10 21:29N 53°34' E 008°34'0 1.0
2017-Oct-10 21:00N 53°34' E 008°34'0 0.1
2017-Oct-10 20:31N 53°33' E 008°34'1 2.1
2017-Oct-10 20:00N 53°34' E 008°32'3 5.6
2017-Oct-10 19:30N 53°36' E 008°30'815.6
2017-Oct-10 19:00N 53°42' E 008°20'815.3
2017-Oct-10 18:30N 53°47' E 008°10'815.4
2017-Oct-10 18:00N 53°51' E 007°59'815.3
2017-Oct-10 17:30N 53°53' E 007°47'4611.8
2017-Oct-10 13:34N 54°37' E 007°25'112.3
2017-Oct-10 13:30N 54°38' E 007°25'612.5
2017-Oct-10 13:00N 54°44' E 007°25'612.7
2017-Oct-10 12:30N 54°51' E 007°25'612.8
2017-Oct-10 12:00N 54°57' E 007°25'612.8
2017-Oct-10 11:30N 55°03' E 007°24'713.0
2017-Oct-10 11:00N 55°10' E 007°24'713.3
2017-Oct-10 10:30N 55°17' E 007°24'713.3
2017-Oct-10 10:00N 55°23' E 007°23'713.7
2017-Oct-10 09:30N 55°30' E 007°23'713.2
2017-Oct-10 09:00N 55°37' E 007°22'19812.8
2017-Oct-09 17:35N 58°33' E 010°06'113.1
2017-Oct-09 17:30N 58°34' E 010°07'713.3
2017-Oct-09 17:00N 58°40' E 010°13'713.0
2017-Oct-09 16:30N 58°46' E 010°19'713.1
2017-Oct-09 16:00N 58°51' E 010°26'713.2
2017-Oct-09 15:30N 58°57' E 010°31'613.0
2017-Oct-09 15:00N 59°03' E 010°36'917.3
2017-Oct-09 14:30N 59°12' E 010°38'1020.7
2017-Oct-09 14:00N 59°22' E 010°35'1020.1
2017-Oct-09 13:30N 59°32' E 010°36'917.7
2017-Oct-09 13:01N 59°41' E 010°37'917.5
2017-Oct-09 12:31N 59°50' E 010°35'612.7
2017-Oct-09 12:00N 59°53' E 010°46'0 0.0
2017-Oct-09 11:29N 59°53' E 010°46'0 0.0
2017-Oct-09 10:59N 59°53' E 010°46'0 0.0
2017-Oct-09 10:29N 59°53' E 010°46'0 0.0
2017-Oct-09 09:59N 59°53' E 010°46'0 0.0
2017-Oct-09 09:29N 59°53' E 010°46'0 0.0
2017-Oct-09 08:59N 59°53' E 010°46'0 0.0
2017-Oct-09 08:29N 59°53' E 010°46'0 0.0
2017-Oct-09 07:59N 59°53' E 010°46'  

Dump ship's entire track history